Time,TemperatureF,DewpointF,PressureIn,WindDirection,WindDirectionDegrees,WindSpeedMPH,WindSpeedGustMPH,Humidity,HourlyPrecipIn,Conditions,Clouds,dailyrainin,SoftwareType,DateUTC
2013-10-14 00:14:00,67.0,65.0,30.05,NE,48,1.0,3.0,92,99.99,,,-99.99,,2013-10-14 04:14:00,
2013-10-14 00:24:00,67.0,65.0,30.04,ENE,60,2.0,4.0,93,99.99,,,-99.99,,2013-10-14 04:24:00,
2013-10-14 00:43:00,66.0,64.0,30.04,North,0,0.0,0.0,94,99.99,,,-99.99,,2013-10-14 04:43:00,
2013-10-14 00:54:00,66.0,65.0,30.04,NNE,13,3.0,4.0,95,99.99,,,-99.99,,2013-10-14 04:54:00,
2013-10-14 01:23:00,66.0,65.0,30.03,North,354,1.0,3.0,96,99.99,,,-99.99,,2013-10-14 05:23:00,
2013-10-14 01:52:00,66.0,65.0,30.02,North,359,3.0,4.0,98,99.99,,,-99.99,,2013-10-14 05:52:00,
2013-10-14 02:22:00,65.0,65.0,30.02,North,0,0.0,0.0,99,99.99,,,-99.99,,2013-10-14 06:22:00,
2013-10-14 02:52:00,66.0,66.0,30.01,NNE,20,5.0,8.0,100,99.99,,,-99.99,,2013-10-14 06:52:00,
2013-10-14 03:22:00,68.0,68.0,30.00,North,0,6.0,9.0,100,99.99,,,-99.99,,2013-10-14 07:22:00,
2013-10-14 03:42:00,68.0,68.0,30.00,North,353,3.0,6.0,100,99.99,,,-99.99,,2013-10-14 07:42:00,
2013-10-14 03:52:00,68.0,68.0,30.00,North,0,0.0,0.0,99,99.99,,,-99.99,,2013-10-14 07:52:00,
2013-10-14 04:22:00,67.0,67.0,30.00,NNE,21,3.0,5.0,99,99.99,,,-99.99,,2013-10-14 08:22:00,
2013-10-14 04:52:00,67.0,67.0,29.99,NNE,15,3.0,5.0,100,99.99,,,-99.99,,2013-10-14 08:52:00,
2013-10-14 05:22:00,67.0,67.0,29.99,North,4,5.0,6.0,100,99.99,,,-99.99,,2013-10-14 09:22:00,
2013-10-14 05:43:00,68.0,68.0,29.99,NNE,14,4.0,6.0,100,99.99,,,-99.99,,2013-10-14 09:43:00,
2013-10-14 05:53:00,68.0,68.0,29.99,North,11,3.0,5.0,100,99.99,,,-99.99,,2013-10-14 09:53:00,
2013-10-14 06:23:00,67.0,67.0,29.99,North,8,1.0,3.0,100,99.99,,,-99.99,,2013-10-14 10:23:00,
2013-10-14 06:53:00,66.0,66.0,30.00,North,0,0.0,0.0,100,99.99,,,-99.99,,2013-10-14 10:53:00,
2013-10-14 07:22:00,65.0,65.0,30.00,North,0,0.0,0.0,100,99.99,,,-99.99,,2013-10-14 11:22:00,
2013-10-14 07:42:00,65.0,65.0,30.00,North,0,0.0,0.0,100,99.99,,,-99.99,,2013-10-14 11:42:00,
2013-10-14 07:52:00,65.0,65.0,30.01,North,0,0.0,0.0,100,99.99,,,-99.99,,2013-10-14 11:52:00,
2013-10-14 08:22:00,67.0,67.0,30.01,North,349,3.0,5.0,100,99.99,,,-99.99,,2013-10-14 12:22:00,
2013-10-14 08:42:00,68.0,68.0,30.01,North,354,3.0,6.0,100,99.99,,,-99.99,,2013-10-14 12:42:00,
2013-10-14 08:52:00,69.0,69.0,30.02,North,10,4.0,6.0,100,99.99,,,-99.99,,2013-10-14 12:52:00,
2013-10-14 09:11:00,70.0,70.0,30.01,North,352,6.0,9.0,100,99.99,,,-99.99,,2013-10-14 13:11:00,
2013-10-14 09:22:00,71.0,71.0,30.02,North,1,7.0,9.0,100,99.99,,,-99.99,,2013-10-14 13:22:00,
2013-10-14 09:42:00,72.0,72.0,30.02,North,1,4.0,8.0,100,99.99,,,-99.99,,2013-10-14 13:42:00,
2013-10-14 09:52:00,74.0,73.0,30.03,NNE,23,5.0,10.0,96,99.99,,,-99.99,,2013-10-14 13:52:00,
2013-10-14 10:11:00,75.0,73.0,30.03,NNE,20,5.0,9.0,92,99.99,,,-99.99,,2013-10-14 14:11:00,
2013-10-14 10:22:00,77.0,70.0,30.03,NNE,21,7.0,13.0,80,99.99,,,-99.99,,2013-10-14 14:22:00,
2013-10-14 10:42:00,78.0,70.0,30.03,North,10,7.0,13.0,76,99.99,,,-99.99,,2013-10-14 14:42:00,
2013-10-14 10:52:00,79.0,70.0,30.02,North,4,5.0,9.0,74,99.99,,,-99.99,,2013-10-14 14:52:00,
2013-10-14 11:22:00,80.0,70.0,30.03,North,6,7.0,15.0,72,99.99,,,-99.99,,2013-10-14 15:22:00,
2013-10-14 11:54:00,81.0,69.0,30.03,NE,49,7.0,14.0,67,99.99,,,-99.99,,2013-10-14 15:54:00,
2013-10-14 12:23:00,82.0,68.0,30.02,NE,56,4.0,9.0,63,99.99,,,-99.99,,2013-10-14 16:23:00,
2013-10-14 12:53:00,83.0,68.0,30.01,NNE,15,4.0,8.0,60,99.99,,,-99.99,,2013-10-14 16:53:00,
2013-10-14 13:22:00,84.0,66.0,30.00,North,8,5.0,13.0,54,99.99,,,-99.99,,2013-10-14 17:22:00,
2013-10-14 13:52:00,85.0,65.0,29.98,North,11,6.0,12.0,52,99.99,,,-99.99,,2013-10-14 17:52:00,
2013-10-14 14:22:00,84.0,65.0,29.97,NNE,14,6.0,11.0,53,99.99,,,-99.99,,2013-10-14 18:22:00,
2013-10-14 14:52:00,85.0,66.0,29.95,NNE,17,5.0,13.0,54,99.99,,,-99.99,,2013-10-14 18:52:00,
2013-10-14 15:22:00,86.0,66.0,29.94,North,1,6.0,11.0,51,99.99,,,-99.99,,2013-10-14 19:22:00,
2013-10-14 15:52:00,85.0,64.0,29.93,North,6,5.0,9.0,50,99.99,,,-99.99,,2013-10-14 19:52:00,
2013-10-14 16:22:00,85.0,64.0,29.93,NNE,25,5.0,12.0,50,99.99,,,-99.99,,2013-10-14 20:22:00,
2013-10-14 16:52:00,85.0,65.0,29.92,NNW,346,5.0,10.0,51,99.99,,,-99.99,,2013-10-14 20:52:00,
2013-10-14 17:22:00,85.0,65.0,29.92,NNE,23,7.0,12.0,51,99.99,,,-99.99,,2013-10-14 21:22:00,
2013-10-14 17:55:00,84.0,66.0,29.93,ENE,58,4.0,9.0,54,99.99,,,-99.99,,2013-10-14 21:55:00,
2013-10-14 18:24:00,83.0,64.0,29.94,NE,51,4.0,10.0,53,99.99,,,-99.99,,2013-10-14 22:24:00,
2013-10-14 18:54:00,81.0,66.0,29.94,NE,46,3.0,9.0,60,99.99,,,-99.99,,2013-10-14 22:54:00,
2013-10-14 19:22:00,79.0,66.0,29.95,NE,53,2.0,7.0,64,99.99,,,-99.99,,2013-10-14 23:22:00,
2013-10-14 19:52:00,77.0,66.0,29.96,NE,53,3.0,7.0,68,99.99,,,-99.99,,2013-10-14 23:52:00,
2013-10-14 20:22:00,77.0,67.0,29.96,ENE,66,2.0,6.0,71,99.99,,,-99.99,,2013-10-15 00:22:00,
2013-10-14 20:52:00,75.0,66.0,29.97,NE,56,1.0,4.0,73,99.99,,,-99.99,,2013-10-15 00:52:00,
2013-10-14 21:22:00,75.0,66.0,29.97,NE,46,1.0,5.0,74,99.99,,,-99.99,,2013-10-15 01:22:00,
2013-10-14 21:52:00,74.0,66.0,29.98,ENE,66,1.0,6.0,75,99.99,,,-99.99,,2013-10-15 01:52:00,
2013-10-14 22:03:00,74.0,66.0,29.98,ENE,66,1.0,6.0,75,99.99,,,-99.99,,2013-10-15 02:03:00,
2013-10-14 22:22:00,74.0,68.0,29.99,NE,55,4.0,8.0,82,99.99,,,-99.99,,2013-10-15 02:22:00,
2013-10-14 22:52:00,73.0,68.0,30.00,NNE,24,2.0,5.0,85,99.99,,,-99.99,,2013-10-15 02:52:00,
2013-10-14 23:23:00,73.0,69.0,30.00,ENE,63,4.0,7.0,87,99.99,,,-99.99,,2013-10-15 03:23:00,
2013-10-14 23:55:00,72.0,69.0,30.00,North,3,4.0,6.0,90,99.99,,,-99.99,,2013-10-15 03:55:00,